sensor_id;sensor_type;location;lat;lon;timestamp;pressure;altitude;pressure_sealevel;temperature;humidity
72038;BME280;59900;50.788;12.904;2023-06-10T00:01:06;97386.38;;;18.00;72.64
72038;BME280;59900;50.788;12.904;2023-06-10T00:03:31;97379.47;;;17.99;72.40
72038;BME280;59900;50.788;12.904;2023-06-10T00:05:57;97378.19;;;18.02;72.44
72038;BME280;59900;50.788;12.904;2023-06-10T00:08:23;97370.53;;;18.05;71.59
72038;BME280;59900;50.788;12.904;2023-06-10T00:10:48;97361.53;;;18.11;71.71
72038;BME280;59900;50.788;12.904;2023-06-10T00:13:13;97359.94;;;18.10;71.80
72038;BME280;59900;50.788;12.904;2023-06-10T00:15:38;97353.81;;;18.10;71.66
72038;BME280;59900;50.788;12.904;2023-06-10T00:18:04;97357.22;;;18.05;71.97
72038;BME280;59900;50.788;12.904;2023-06-10T00:20:30;97362.72;;;17.99;72.37
72038;BME280;59900;50.788;12.904;2023-06-10T00:22:56;97370.06;;;17.91;72.37
72038;BME280;59900;50.788;12.904;2023-06-10T00:25:22;97354.53;;;17.83;72.76
72038;BME280;59900;50.788;12.904;2023-06-10T00:27:47;97362.47;;;17.78;72.62
72038;BME280;59900;50.788;12.904;2023-06-10T00:30:13;97368.06;;;17.82;72.40
72038;BME280;59900;50.788;12.904;2023-06-10T00:32:38;97365.91;;;17.79;73.00
72038;BME280;59900;50.788;12.904;2023-06-10T00:35:04;97362.53;;;17.83;73.11
72038;BME280;59900;50.788;12.904;2023-06-10T00:37:30;97365.59;;;17.75;72.78
72038;BME280;59900;50.788;12.904;2023-06-10T00:39:57;97380.03;;;17.63;73.48
72038;BME280;59900;50.788;12.904;2023-06-10T00:42:22;97385.59;;;17.61;73.67
72038;BME280;59900;50.788;12.904;2023-06-10T00:44:50;97379.50;;;17.61;74.11
72038;BME280;59900;50.788;12.904;2023-06-10T00:47:15;97391.47;;;17.63;74.45
72038;BME280;59900;50.788;12.904;2023-06-10T00:49:41;97384.97;;;17.54;74.00
72038;BME280;59900;50.788;12.904;2023-06-10T00:52:06;97380.03;;;17.46;74.66
72038;BME280;59900;50.788;12.904;2023-06-10T00:54:33;97382.31;;;17.38;74.98
72038;BME280;59900;50.788;12.904;2023-06-10T00:57:00;97381.16;;;17.33;75.53
72038;BME280;59900;50.788;12.904;2023-06-10T00:59:28;97375.03;;;17.33;75.48
72038;BME280;59900;50.788;12.904;2023-06-10T01:01:53;97374.22;;;17.32;75.32
72038;BME280;59900;50.788;12.904;2023-06-10T01:04:19;97373.41;;;17.32;75.27
72038;BME280;59900;50.788;12.904;2023-06-10T01:06:52;97374.50;;;17.31;75.71
72038;BME280;59900;50.788;12.904;2023-06-10T01:09:28;97368.59;;;17.29;75.25
72038;BME280;59900;50.788;12.904;2023-06-10T01:12:12;97368.53;;;17.24;75.93
72038;BME280;59900;50.788;12.904;2023-06-10T01:14:40;97373.03;;;17.23;75.80
72038;BME280;59900;50.788;12.904;2023-06-10T01:17:10;97370.97;;;17.25;75.78
72038;BME280;59900;50.788;12.904;2023-06-10T01:19:36;97378.34;;;17.23;76.41
72038;BME280;59900;50.788;12.904;2023-06-10T01:22:01;97377.63;;;17.11;76.54
72038;BME280;59900;50.788;12.904;2023-06-10T01:24:27;97381.97;;;17.01;76.76
72038;BME280;59900;50.788;12.904;2023-06-10T01:26:54;97378.97;;;16.97;76.53
72038;BME280;59900;50.788;12.904;2023-06-10T01:29:30;97376.09;;;16.99;76.72
72038;BME280;59900;50.788;12.904;2023-06-10T01:32:01;97371.00;;;16.97;77.30
72038;BME280;59900;50.788;12.904;2023-06-10T01:34:31;97370.53;;;17.00;77.27
72038;BME280;59900;50.788;12.904;2023-06-10T01:36:58;97377.47;;;17.01;77.00
72038;BME280;59900;50.788;12.904;2023-06-10T01:39:24;97372.69;;;17.03;76.76
72038;BME280;59900;50.788;12.904;2023-06-10T01:41:50;97385.91;;;16.98;77.03
72038;BME280;59900;50.788;12.904;2023-06-10T01:44:21;97380.50;;;16.93;76.85
72038;BME280;59900;50.788;12.904;2023-06-10T01:46:46;97384.19;;;16.92;77.46
72038;BME280;59900;50.788;12.904;2023-06-10T01:49:12;97396.59;;;16.87;77.12
72038;BME280;59900;50.788;12.904;2023-06-10T01:51:38;97389.81;;;16.79;77.42
72038;BME280;59900;50.788;12.904;2023-06-10T01:54:03;97403.94;;;16.68;78.15
72038;BME280;59900;50.788;12.904;2023-06-10T01:56:29;97403.50;;;16.59;78.08
72038;BME280;59900;50.788;12.904;2023-06-10T01:58:54;97413.91;;;16.49;77.90
72038;BME280;59900;50.788;12.904;2023-06-10T02:01:24;97420.38;;;16.42;78.25
72038;BME280;59900;50.788;12.904;2023-06-10T02:03:49;97423.28;;;16.40;78.54
72038;BME280;59900;50.788;12.904;2023-06-10T02:06:14;97424.66;;;16.43;79.18
72038;BME280;59900;50.788;12.904;2023-06-10T02:08:39;97424.41;;;16.44;78.49
72038;BME280;59900;50.788;12.904;2023-06-10T02:11:05;97432.03;;;16.41;78.92
72038;BME280;59900;50.788;12.904;2023-06-10T02:13:32;97433.28;;;16.38;79.14
72038;BME280;59900;50.788;12.904;2023-06-10T02:15:57;97429.63;;;16.39;79.32
72038;BME280;59900;50.788;12.904;2023-06-10T02:18:22;97442.88;;;16.39;79.75
72038;BME280;59900;50.788;12.904;2023-06-10T02:20:47;97442.88;;;16.39;80.32
72038;BME280;59900;50.788;12.904;2023-06-10T02:23:13;97444.63;;;16.34;80.18
72038;BME280;59900;50.788;12.904;2023-06-10T02:25:39;97447.66;;;16.25;80.58
72038;BME280;59900;50.788;12.904;2023-06-10T02:28:05;97443.03;;;16.21;80.77
72038;BME280;59900;50.788;12.904;2023-06-10T02:30:30;97445.13;;;16.19;80.68
72038;BME280;59900;50.788;12.904;2023-06-10T02:32:56;97454.09;;;16.18;81.21
72038;BME280;59900;50.788;12.904;2023-06-10T02:35:21;97443.84;;;16.21;80.52
72038;BME280;59900;50.788;12.904;2023-06-10T02:37:47;97450.63;;;16.29;79.92
72038;BME280;59900;50.788;12.904;2023-06-10T02:40:12;97444.53;;;16.29;79.93
72038;BME280;59900;50.788;12.904;2023-06-10T02:42:38;97453.38;;;16.34;79.82
72038;BME280;59900;50.788;12.904;2023-06-10T02:45:03;97451.88;;;16.38;80.04
72038;BME280;59900;50.788;12.904;2023-06-10T02:47:29;97457.75;;;16.40;79.93
72038;BME280;59900;50.788;12.904;2023-06-10T02:49:55;97457.03;;;16.45;79.42
72038;BME280;59900;50.788;12.904;2023-06-10T02:52:20;97458.41;;;16.47;80.07
72038;BME280;59900;50.788;12.904;2023-06-10T02:54:48;97454.38;;;16.45;79.39
72038;BME280;59900;50.788;12.904;2023-06-10T02:57:15;97451.19;;;16.43;79.97
72038;BME280;59900;50.788;12.904;2023-06-10T02:59:41;97444.25;;;16.42;79.53
72038;BME280;59900;50.788;12.904;2023-06-10T03:02:06;97445.63;;;16.44;79.47
72038;BME280;59900;50.788;12.904;2023-06-10T03:04:32;97445.63;;;16.44;79.26
72038;BME280;59900;50.788;12.904;2023-06-10T03:06:58;97446.22;;;16.46;79.41
72038;BME280;59900;50.788;12.904;2023-06-10T03:09:25;97444.69;;;16.50;79.34
72038;BME280;59900;50.788;12.904;2023-06-10T03:11:50;97444.22;;;16.53;79.25
72038;BME280;59900;50.788;12.904;2023-06-10T03:14:16;97448.38;;;16.61;79.23
72038;BME280;59900;50.788;12.904;2023-06-10T03:16:41;97448.13;;;16.62;79.11
72038;BME280;59900;50.788;12.904;2023-06-10T03:19:07;97445.25;;;16.64;79.02
72038;BME280;59900;50.788;12.904;2023-06-10T03:21:36;97445.00;;;16.65;79.16
72038;BME280;59900;50.788;12.904;2023-06-10T03:24:02;97454.13;;;16.69;78.86
72038;BME280;59900;50.788;12.904;2023-06-10T03:26:28;97450.75;;;16.74;78.75
72038;BME280;59900;50.788;12.904;2023-06-10T03:28:53;97461.69;;;16.77;78.17
72038;BME280;59900;50.788;12.904;2023-06-10T03:31:18;97455.91;;;16.80;78.18
72038;BME280;59900;50.788;12.904;2023-06-10T03:33:44;97460.50;;;16.85;78.35
72038;BME280;59900;50.788;12.904;2023-06-10T03:36:09;97471.25;;;16.90;77.64
72038;BME280;59900;50.788;12.904;2023-06-10T03:38:34;97462.06;;;16.98;78.21
72038;BME280;59900;50.788;12.904;2023-06-10T03:41:00;97469.47;;;16.96;77.88
72038;BME280;59900;50.788;12.904;2023-06-10T03:43:25;97463.91;;;16.97;78.12
72038;BME280;59900;50.788;12.904;2023-06-10T03:45:51;97460.56;;;17.02;78.46
72038;BME280;59900;50.788;12.904;2023-06-10T03:48:17;97466.78;;;17.07;78.93
72038;BME280;59900;50.788;12.904;2023-06-10T03:50:42;97465.81;;;17.13;78.20
72038;BME280;59900;50.788;12.904;2023-06-10T03:53:07;97473.63;;;17.20;78.42
72038;BME280;59900;50.788;12.904;2023-06-10T03:55:33;97469.09;;;17.20;77.55
72038;BME280;59900;50.788;12.904;2023-06-10T03:57:58;97465.19;;;17.23;78.07
72038;BME280;59900;50.788;12.904;2023-06-10T04:00:23;97465.75;;;17.25;77.29
72038;BME280;59900;50.788;12.904;2023-06-10T04:02:48;97467.38;;;17.26;77.60
72038;BME280;59900;50.788;12.904;2023-06-10T04:05:16;97471.41;;;17.28;77.91
72038;BME280;59900;50.788;12.904;2023-06-10T04:07:42;97466.09;;;17.28;77.58
72038;BME280;59900;50.788;12.904;2023-06-10T04:10:10;97470.03;;;17.26;77.62
72038;BME280;59900;50.788;12.904;2023-06-10T04:12:36;97477.75;;;17.27;77.18
72038;BME280;59900;50.788;12.904;2023-06-10T04:15:03;97476.22;;;17.31;77.18
72038;BME280;59900;50.788;12.904;2023-06-10T04:17:29;97472.28;;;17.34;77.56
72038;BME280;59900;50.788;12.904;2023-06-10T04:19:54;97470.66;;;17.33;77.64
72038;BME280;59900;50.788;12.904;2023-06-10T04:22:23;97470.19;;;17.36;77.46
72038;BME280;59900;50.788;12.904;2023-06-10T04:24:48;97472.63;;;17.38;77.53
72038;BME280;59900;50.788;12.904;2023-06-10T04:27:14;97467.31;;;17.38;77.67
72038;BME280;59900;50.788;12.904;2023-06-10T04:29:39;97473.88;;;17.35;77.27
72038;BME280;59900;50.788;12.904;2023-06-10T04:32:05;97468.81;;;17.33;76.63
72038;BME280;59900;50.788;12.904;2023-06-10T04:34:33;97478.16;;;17.36;77.42
72038;BME280;59900;50.788;12.904;2023-06-10T04:36:58;97469.72;;;17.39;76.66
72038;BME280;59900;50.788;12.904;2023-06-10T04:39:23;97470.84;;;17.43;76.75
72038;BME280;59900;50.788;12.904;2023-06-10T04:41:49;97470.84;;;17.43;76.34
72038;BME280;59900;50.788;12.904;2023-06-10T04:44:14;97470.38;;;17.46;76.04
72038;BME280;59900;50.788;12.904;2023-06-10T04:46:39;97461.91;;;17.49;76.23
72038;BME280;59900;50.788;12.904;2023-06-10T04:49:05;97468.28;;;17.48;76.55
72038;BME280;59900;50.788;12.904;2023-06-10T04:51:30;97465.34;;;17.50;76.30
72038;BME280;59900;50.788;12.904;2023-06-10T04:53:57;97465.34;;;17.50;75.99
72038;BME280;59900;50.788;12.904;2023-06-10T04:56:22;97465.69;;;17.53;75.70
72038;BME280;59900;50.788;12.904;2023-06-10T04:58:47;97472.66;;;17.54;76.24
72038;BME280;59900;50.788;12.904;2023-06-10T05:01:13;97475.38;;;17.59;76.32
72038;BME280;59900;50.788;12.904;2023-06-10T05:03:38;97470.38;;;17.63;76.16
72038;BME280;59900;50.788;12.904;2023-06-10T05:06:03;97471.06;;;17.70;76.22
72038;BME280;59900;50.788;12.904;2023-06-10T05:08:29;97479.91;;;17.75;76.19
72038;BME280;59900;50.788;12.904;2023-06-10T05:10:54;97476.75;;;17.78;75.48
72038;BME280;59900;50.788;12.904;2023-06-10T05:13:19;97487.13;;;17.80;75.50
72038;BME280;59900;50.788;12.904;2023-06-10T05:15:44;97482.06;;;17.78;75.34
72038;BME280;59900;50.788;12.904;2023-06-10T05:18:11;97489.09;;;17.84;75.46
72038;BME280;59900;50.788;12.904;2023-06-10T05:20:39;97484.31;;;17.86;75.42
72038;BME280;59900;50.788;12.904;2023-06-10T05:23:04;97496.09;;;17.90;75.25
72038;BME280;59900;50.788;12.904;2023-06-10T05:25:30;97492.91;;;17.93;75.42
72038;BME280;59900;50.788;12.904;2023-06-10T05:27:57;97492.44;;;17.97;75.51
72038;BME280;59900;50.788;12.904;2023-06-10T05:30:23;97488.25;;;18.01;75.21
72038;BME280;59900;50.788;12.904;2023-06-10T05:32:49;97489.38;;;18.05;75.19
72038;BME280;59900;50.788;12.904;2023-06-10T05:35:16;97492.09;;;18.10;75.06
72038;BME280;59900;50.788;12.904;2023-06-10T05:37:41;97489.28;;;18.16;75.10
72038;BME280;59900;50.788;12.904;2023-06-10T05:40:07;97490.16;;;18.22;74.83
72038;BME280;59900;50.788;12.904;2023-06-10T05:42:33;97487.53;;;18.27;75.04
72038;BME280;59900;50.788;12.904;2023-06-10T05:44:58;97481.75;;;18.30;75.17
72038;BME280;59900;50.788;12.904;2023-06-10T05:47:23;97487.13;;;18.35;74.40
72038;BME280;59900;50.788;12.904;2023-06-10T05:49:48;97486.13;;;18.41;74.54
72038;BME280;59900;50.788;12.904;2023-06-10T05:52:15;97483.56;;;18.46;74.63
72038;BME280;59900;50.788;12.904;2023-06-10T05:54:40;97486.03;;;18.53;74.48
72038;BME280;59900;50.788;12.904;2023-06-10T05:57:05;97489.56;;;18.58;74.07
72038;BME280;59900;50.788;12.904;2023-06-10T05:59:31;97489.66;;;18.63;73.20
72038;BME280;59900;50.788;12.904;2023-06-10T06:01:56;97486.00;;;18.69;73.88
72038;BME280;59900;50.788;12.904;2023-06-10T06:04:21;97482.34;;;18.75;73.75
72038;BME280;59900;50.788;12.904;2023-06-10T06:06:47;97483.38;;;18.74;73.05
72038;BME280;59900;50.788;12.904;2023-06-10T06:09:12;97489.03;;;18.78;73.02
72038;BME280;59900;50.788;12.904;2023-06-10T06:11:37;97494.94;;;18.85;73.49
72038;BME280;59900;50.788;12.904;2023-06-10T06:14:03;97497.69;;;18.90;72.75
72038;BME280;59900;50.788;12.904;2023-06-10T06:16:28;97502.78;;;18.96;72.63
72038;BME280;59900;50.788;12.904;2023-06-10T06:18:53;97492.47;;;19.00;72.47
72038;BME280;59900;50.788;12.904;2023-06-10T06:21:18;97494.13;;;19.06;71.82
72038;BME280;59900;50.788;12.904;2023-06-10T06:23:44;97498.72;;;19.11;72.15
72038;BME280;59900;50.788;12.904;2023-06-10T06:26:09;97503.53;;;19.14;72.51
72038;BME280;59900;50.788;12.904;2023-06-10T06:28:34;97504.59;;;19.13;71.61
72038;BME280;59900;50.788;12.904;2023-06-10T06:31:00;97499.31;;;19.18;71.89
72038;BME280;59900;50.788;12.904;2023-06-10T06:33:25;97497.75;;;19.22;72.17
72038;BME280;59900;50.788;12.904;2023-06-10T06:35:51;97506.34;;;19.29;71.70
72038;BME280;59900;50.788;12.904;2023-06-10T06:38:16;97502.63;;;19.30;71.42
72038;BME280;59900;50.788;12.904;2023-06-10T06:40:42;97504.78;;;19.33;71.40
72038;BME280;59900;50.788;12.904;2023-06-10T06:43:07;97506.41;;;19.34;71.23
72038;BME280;59900;50.788;12.904;2023-06-10T06:45:32;97506.94;;;19.36;71.56
72038;BME280;59900;50.788;12.904;2023-06-10T06:47:59;97512.34;;;19.41;71.04
72038;BME280;59900;50.788;12.904;2023-06-10T06:50:24;97510.00;;;19.44;71.34
72038;BME280;59900;50.788;12.904;2023-06-10T06:52:49;97520.94;;;19.48;70.53
72038;BME280;59900;50.788;12.904;2023-06-10T06:55:14;97521.47;;;19.45;70.62
72038;BME280;59900;50.788;12.904;2023-06-10T06:57:40;97531.06;;;19.46;71.09
72038;BME280;59900;50.788;12.904;2023-06-10T07:00:05;97523.94;;;19.51;71.28
72038;BME280;59900;50.788;12.904;2023-06-10T07:02:31;97526.88;;;19.55;70.82
72038;BME280;59900;50.788;12.904;2023-06-10T07:04:58;97529.84;;;19.58;70.53
72038;BME280;59900;50.788;12.904;2023-06-10T07:07:24;97526.72;;;19.67;71.49
72038;BME280;59900;50.788;12.904;2023-06-10T07:09:49;97528.63;;;19.71;70.95
72038;BME280;59900;50.788;12.904;2023-06-10T07:12:14;97523.09;;;19.78;70.79
72038;BME280;59900;50.788;12.904;2023-06-10T07:14:39;97528.16;;;19.79;70.66
72038;BME280;59900;50.788;12.904;2023-06-10T07:17:05;97529.25;;;19.83;70.63
72038;BME280;59900;50.788;12.904;2023-06-10T07:19:30;97526.63;;;19.88;70.93
72038;BME280;59900;50.788;12.904;2023-06-10T07:21:55;97532.78;;;19.94;71.48
72038;BME280;59900;50.788;12.904;2023-06-10T07:24:21;97529.09;;;20.00;71.57
72038;BME280;59900;50.788;12.904;2023-06-10T07:26:46;97525.69;;;20.04;71.76
72038;BME280;59900;50.788;12.904;2023-06-10T07:29:11;97519.56;;;20.09;71.03
72038;BME280;59900;50.788;12.904;2023-06-10T07:31:37;97526.56;;;20.15;70.88
72038;BME280;59900;50.788;12.904;2023-06-10T07:34:03;97526.03;;;20.18;70.69
72038;BME280;59900;50.788;12.904;2023-06-10T07:36:28;97535.66;;;20.19;70.20
72038;BME280;59900;50.788;12.904;2023-06-10T07:38:54;97535.94;;;20.23;69.80
72038;BME280;59900;50.788;12.904;2023-06-10T07:41:20;97532.78;;;20.26;70.03
72038;BME280;59900;50.788;12.904;2023-06-10T07:43:45;97526.94;;;20.29;70.28
72038;BME280;59900;50.788;12.904;2023-06-10T07:46:10;97526.72;;;20.35;69.60
72038;BME280;59900;50.788;12.904;2023-06-10T07:48:36;97526.22;;;20.43;69.49
72038;BME280;59900;50.788;12.904;2023-06-10T07:51:01;97528.94;;;20.48;68.01
72038;BME280;59900;50.788;12.904;2023-06-10T07:53:26;97531.34;;;20.55;68.41
72038;BME280;59900;50.788;12.904;2023-06-10T07:55:51;97531.13;;;20.61;67.99
72038;BME280;59900;50.788;12.904;2023-06-10T07:58:17;97533.03;;;20.66;67.65
72038;BME280;59900;50.788;12.904;2023-06-10T08:00:42;97527.69;;;20.71;67.52
72038;BME280;59900;50.788;12.904;2023-06-10T08:03:07;97534.13;;;20.75;67.80
72038;BME280;59900;50.788;12.904;2023-06-10T08:05:32;97529.63;;;20.81;67.32
72038;BME280;59900;50.788;12.904;2023-06-10T08:07:58;97534.16;;;20.85;66.96
72038;BME280;59900;50.788;12.904;2023-06-10T08:10:23;97525.09;;;20.91;66.89
72038;BME280;59900;50.788;12.904;2023-06-10T08:12:48;97528.88;;;21.05;66.73
72038;BME280;59900;50.788;12.904;2023-06-10T08:15:13;97529.50;;;21.17;66.91
72038;BME280;59900;50.788;12.904;2023-06-10T08:17:39;97526.59;;;21.29;66.55
72038;BME280;59900;50.788;12.904;2023-06-10T08:20:05;97529.28;;;21.39;66.79
72038;BME280;59900;50.788;12.904;2023-06-10T08:22:31;97524.22;;;21.53;66.32
72038;BME280;59900;50.788;12.904;2023-06-10T08:24:56;97537.63;;;21.63;65.51
72038;BME280;59900;50.788;12.904;2023-06-10T08:27:21;97534.41;;;21.71;65.49
72038;BME280;59900;50.788;12.904;2023-06-10T08:29:47;97534.66;;;21.79;65.10
72038;BME280;59900;50.788;12.904;2023-06-10T08:32:12;97548.34;;;21.88;64.88
72038;BME280;59900;50.788;12.904;2023-06-10T08:34:37;97548.34;;;21.98;64.99
72038;BME280;59900;50.788;12.904;2023-06-10T08:37:03;97545.94;;;22.07;64.62
72038;BME280;59900;50.788;12.904;2023-06-10T08:39:28;97534.41;;;22.16;63.99
72038;BME280;59900;50.788;12.904;2023-06-10T08:42:11;97546.16;;;22.25;63.58
72038;BME280;59900;50.788;12.904;2023-06-10T08:44:37;97534.94;;;22.33;62.88
72038;BME280;59900;50.788;12.904;2023-06-10T08:47:10;97554.47;;;22.39;62.45
72038;BME280;59900;50.788;12.904;2023-06-10T08:49:38;97549.38;;;22.43;63.08
72038;BME280;59900;50.788;12.904;2023-06-10T08:52:06;97545.88;;;22.47;62.27
72038;BME280;59900;50.788;12.904;2023-06-10T08:54:33;97556.31;;;22.54;61.92
72038;BME280;59900;50.788;12.904;2023-06-10T08:57:04;97553.34;;;22.55;61.69
72038;BME280;59900;50.788;12.904;2023-06-10T08:59:31;97556.03;;;22.55;61.22
72038;BME280;59900;50.788;12.904;2023-06-10T09:01:56;97553.63;;;22.59;61.55
72038;BME280;59900;50.788;12.904;2023-06-10T09:04:23;97556.28;;;22.59;60.84
72038;BME280;59900;50.788;12.904;2023-06-10T09:06:49;97560.31;;;22.56;61.60
72038;BME280;59900;50.788;12.904;2023-06-10T09:09:15;97551.44;;;22.61;61.71
72038;BME280;59900;50.788;12.904;2023-06-10T09:11:42;97553.06;;;22.62;61.73
72038;BME280;59900;50.788;12.904;2023-06-10T09:14:07;97548.81;;;22.66;61.83
72038;BME280;59900;50.788;12.904;2023-06-10T09:16:33;97546.66;;;22.68;61.79
72038;BME280;59900;50.788;12.904;2023-06-10T09:18:58;97550.94;;;22.74;61.31
72038;BME280;59900;50.788;12.904;2023-06-10T09:21:24;97547.69;;;22.77;61.68
72038;BME280;59900;50.788;12.904;2023-06-10T09:23:50;97541.25;;;22.83;61.46
72038;BME280;59900;50.788;12.904;2023-06-10T09:26:16;97552.25;;;22.76;60.75
72038;BME280;59900;50.788;12.904;2023-06-10T09:28:43;97549.00;;;22.84;60.85
72038;BME280;59900;50.788;12.904;2023-06-10T09:31:09;97546.88;;;22.86;60.81
72038;BME280;59900;50.788;12.904;2023-06-10T09:33:38;97555.41;;;22.94;61.39
72038;BME280;59900;50.788;12.904;2023-06-10T09:36:07;97556.19;;;22.99;61.83
72038;BME280;59900;50.788;12.904;2023-06-10T09:38:34;97558.84;;;23.04;61.06
72038;BME280;59900;50.788;12.904;2023-06-10T09:41:00;97563.69;;;22.97;59.76
72038;BME280;59900;50.788;12.904;2023-06-10T09:43:39;97560.25;;;22.92;58.80
72038;BME280;59900;50.788;12.904;2023-06-10T09:46:05;97562.13;;;22.91;58.89
72038;BME280;59900;50.788;12.904;2023-06-10T09:48:34;97562.91;;;22.97;58.98
72038;BME280;59900;50.788;12.904;2023-06-10T09:51:00;97556.16;;;23.09;57.69
72038;BME280;59900;50.788;12.904;2023-06-10T09:53:25;97562.00;;;23.16;57.45
72038;BME280;59900;50.788;12.904;2023-06-10T09:55:52;97564.13;;;23.24;57.46
72038;BME280;59900;50.788;12.904;2023-06-10T09:58:17;97560.84;;;23.32;57.41
72038;BME280;59900;50.788;12.904;2023-06-10T10:00:42;97569.44;;;23.39;57.13
72038;BME280;59900;50.788;12.904;2023-06-10T10:03:08;97572.13;;;23.39;56.19
72038;BME280;59900;50.788;12.904;2023-06-10T10:05:33;97574.22;;;23.37;55.82
72038;BME280;59900;50.788;12.904;2023-06-10T10:07:58;97584.69;;;23.44;55.78
72038;BME280;59900;50.788;12.904;2023-06-10T10:10:24;97576.59;;;23.49;56.43
72038;BME280;59900;50.788;12.904;2023-06-10T10:12:56;97581.19;;;23.43;55.09
72038;BME280;59900;50.788;12.904;2023-06-10T10:15:22;97575.03;;;23.43;55.58
72038;BME280;59900;50.788;12.904;2023-06-10T10:18:11;97569.97;;;23.36;55.47
72038;BME280;59900;50.788;12.904;2023-06-10T10:20:50;97574.22;;;23.37;55.39
72038;BME280;59900;50.788;12.904;2023-06-10T10:23:26;97581.78;;;23.30;55.99
72038;BME280;59900;50.788;12.904;2023-06-10T10:25:54;97584.19;;;23.32;56.88
72038;BME280;59900;50.788;12.904;2023-06-10T10:28:21;97586.13;;;23.21;57.34
72038;BME280;59900;50.788;12.904;2023-06-10T10:30:51;97584.25;;;23.17;56.59
72038;BME280;59900;50.788;12.904;2023-06-10T10:33:31;97587.22;;;23.10;56.99
72038;BME280;59900;50.788;12.904;2023-06-10T10:35:59;97583.47;;;23.11;57.05
72038;BME280;59900;50.788;12.904;2023-06-10T10:38:25;97578.34;;;23.20;57.59
72038;BME280;59900;50.788;12.904;2023-06-10T10:40:51;97582.56;;;23.31;57.76
72038;BME280;59900;50.788;12.904;2023-06-10T10:43:17;97578.78;;;23.47;58.10
72038;BME280;59900;50.788;12.904;2023-06-10T10:45:46;97580.84;;;23.55;57.77
72038;BME280;59900;50.788;12.904;2023-06-10T10:48:11;97578.44;;;23.59;57.82
72038;BME280;59900;50.788;12.904;2023-06-10T10:50:38;97571.44;;;23.58;57.45
72038;BME280;59900;50.788;12.904;2023-06-10T10:53:05;97569.44;;;23.39;57.18
72038;BME280;59900;50.788;12.904;2023-06-10T10:55:30;97574.81;;;23.29;57.19
72038;BME280;59900;50.788;12.904;2023-06-10T10:58:03;97574.84;;;23.24;57.90
72038;BME280;59900;50.788;12.904;2023-06-10T11:00:30;97571.63;;;23.27;58.52
72038;BME280;59900;50.788;12.904;2023-06-10T11:03:05;97576.38;;;23.35;58.32
72038;BME280;59900;50.788;12.904;2023-06-10T11:05:45;97573.97;;;23.44;58.66
72038;BME280;59900;50.788;12.904;2023-06-10T11:08:14;97583.28;;;23.52;59.11
72038;BME280;59900;50.788;12.904;2023-06-10T11:10:51;97574.13;;;23.63;58.55
72038;BME280;59900;50.788;12.904;2023-06-10T11:13:21;97573.53;;;23.71;58.12
72038;BME280;59900;50.788;12.904;2023-06-10T11:15:48;97576.97;;;23.76;57.49
72038;BME280;59900;50.788;12.904;2023-06-10T11:18:25;97574.25;;;23.81;57.22
72038;BME280;59900;50.788;12.904;2023-06-10T11:26:16;97563.31;;;24.40;57.50
72038;BME280;59900;50.788;12.904;2023-06-10T11:31:23;97561.88;;;24.72;55.70
72038;BME280;59900;50.788;12.904;2023-06-10T11:33:56;97561.19;;;24.90;55.50
72038;BME280;59900;50.788;12.904;2023-06-10T11:36:22;97557.06;;;24.97;53.11
72038;BME280;59900;50.788;12.904;2023-06-10T11:38:48;97549.84;;;24.93;52.48
72038;BME280;59900;50.788;12.904;2023-06-10T11:41:14;97553.00;;;25.00;52.29
72038;BME280;59900;50.788;12.904;2023-06-10T11:43:46;97549.09;;;25.11;52.32
72038;BME280;59900;50.788;12.904;2023-06-10T11:46:13;97549.09;;;25.11;52.51
72038;BME280;59900;50.788;12.904;2023-06-10T11:48:38;97543.59;;;25.21;52.28
72038;BME280;59900;50.788;12.904;2023-06-10T11:51:07;97541.19;;;25.20;51.50
72038;BME280;59900;50.788;12.904;2023-06-10T11:53:34;97543.66;;;25.35;51.84
72038;BME280;59900;50.788;12.904;2023-06-10T11:55:59;97528.75;;;25.42;51.73
72038;BME280;59900;50.788;12.904;2023-06-10T11:58:25;97539.09;;;25.35;50.99
72038;BME280;59900;50.788;12.904;2023-06-10T12:00:52;97535.16;;;25.46;51.34
72038;BME280;59900;50.788;12.904;2023-06-10T12:03:19;97536.50;;;25.49;50.97
72038;BME280;59900;50.788;12.904;2023-06-10T12:06:01;97536.25;;;25.45;50.98
72038;BME280;59900;50.788;12.904;2023-06-10T12:08:27;97528.44;;;25.49;50.42
72038;BME280;59900;50.788;12.904;2023-06-10T12:10:55;97523.31;;;25.66;51.77
72038;BME280;59900;50.788;12.904;2023-06-10T12:13:21;97515.00;;;25.81;51.08
72038;BME280;59900;50.788;12.904;2023-06-10T12:15:48;97512.16;;;25.91;50.33
72038;BME280;59900;50.788;12.904;2023-06-10T12:18:21;97508.41;;;26.06;49.70
72038;BME280;59900;50.788;12.904;2023-06-10T12:20:47;97510.56;;;26.23;49.52
72038;BME280;59900;50.788;12.904;2023-06-10T12:23:14;97506.41;;;26.30;48.46
72038;BME280;59900;50.788;12.904;2023-06-10T12:25:49;97498.31;;;26.44;48.46
72038;BME280;59900;50.788;12.904;2023-06-10T12:28:15;97492.22;;;26.65;47.71
72038;BME280;59900;50.788;12.904;2023-06-10T12:30:40;97490.84;;;26.68;46.85
72038;BME280;59900;50.788;12.904;2023-06-10T12:33:17;97487.34;;;26.81;45.77
72038;BME280;59900;50.788;12.904;2023-06-10T12:35:48;97485.25;;;26.92;45.15
72038;BME280;59900;50.788;12.904;2023-06-10T12:38:14;97486.59;;;27.16;45.88
72038;BME280;59900;50.788;12.904;2023-06-10T12:40:40;97489.84;;;27.41;42.02
72038;BME280;59900;50.788;12.904;2023-06-10T12:43:06;97481.16;;;27.44;42.45
72038;BME280;59900;50.788;12.904;2023-06-10T12:45:36;97479.63;;;27.51;43.19
72038;BME280;59900;50.788;12.904;2023-06-10T12:48:10;97473.78;;;27.58;42.93
72038;BME280;59900;50.788;12.904;2023-06-10T12:50:40;97472.38;;;27.83;43.45
72038;BME280;59900;50.788;12.904;2023-06-10T12:53:06;97478.16;;;28.12;43.70
72038;BME280;59900;50.788;12.904;2023-06-10T12:55:32;97493.47;;;28.25;42.68